Time;durP1;ratioP1;P1;durP2;ratioP2;P2;SDS_P1;SDS_P2;PMS_P1;PMS_P2;Temp;Humidity;BMP_temperature;BMP_pressure;BME280_temperature;BME280_humidity;BME280_pressure;Samples;Min_cycle;Max_cycle;Signal;HPM_P1;HPM_P2
2023/11/12 00:01:48;;;;;;;0.95;0.50;;;6.30;97.30;;;;;;5102729;28;20055;-71
2023/11/12 00:04:14;;;;;;;3.95;1.20;;;;;;;;;;5102413;28;20034;-72
2023/11/12 00:06:42;;;;;;;0.93;0.80;;;6.30;97.00;;;;;;5102495;28;20020;-71
2023/11/12 00:09:09;;;;;;;1.02;0.85;;;6.30;92.00;;;;;;5102403;28;20312;-71
2023/11/12 00:11:36;;;;;;;1.33;0.93;;;;;;;;;;5102469;28;20028;-71
2023/11/12 00:14:02;;;;;;;1.27;0.60;;;6.20;89.00;;;;;;5102354;28;20032;-71
2023/11/12 00:16:28;;;;;;;3.22;1.20;;;6.30;88.60;;;;;;5102275;28;20058;-70
2023/11/12 00:18:55;;;;;;;3.70;1.27;;;;;;;;;;5102215;28;20016;-70
2023/11/12 00:21:21;;;;;;;1.25;1.10;;;;;;;;;;5102330;28;20039;-71
2023/11/12 00:23:51;;;;;;;1.50;1.23;;;6.20;87.70;;;;;;5102096;28;20020;-71
2023/11/12 00:26:17;;;;;;;3.35;0.80;;;6.10;87.70;;;;;;5102342;28;20020;-71
2023/11/12 00:28:43;;;;;;;1.40;0.73;;;;;;;;;;5102282;28;20048;-71
2023/11/12 00:31:09;;;;;;;1.25;1.15;;;;;;;;;;5102037;28;20324;-71
2023/11/12 00:33:34;;;;;;;1.23;0.75;;;5.90;95.70;;;;;;5101855;28;20031;-71
2023/11/12 00:36:00;;;;;;;0.82;0.70;;;;;;;;;;5101877;28;20019;-71
2023/11/12 00:38:27;;;;;;;3.33;1.52;;;;;;;;;;5100508;28;20054;-71
2023/11/12 00:40:55;;;;;;;3.08;1.10;;;5.90;95.40;;;;;;5101845;28;20024;-71
2023/11/12 00:43:26;;;;;;;2.72;0.93;;;6.00;92.80;;;;;;5101848;28;20023;-71
2023/11/12 00:46:01;;;;;;;1.23;0.80;;;5.90;95.20;;;;;;5101849;28;20060;-71
2023/11/12 00:48:27;;;;;;;1.48;1.15;;;6.00;95.30;;;;;;5101650;28;20046;-71
2023/11/12 00:50:53;;;;;;;2.15;1.13;;;;;;;;;;5101490;28;20442;-71
2023/11/12 00:53:20;;;;;;;1.70;1.17;;;;;;;;;;5101673;28;20328;-71
2023/11/12 00:55:46;;;;;;;1.60;1.05;;;6.00;93.90;;;;;;5101580;28;20020;-71
2023/11/12 00:58:12;;;;;;;0.50;0.50;;;5.70;94.70;;;;;;5101499;28;20183;-71
2023/11/12 01:00:41;;;;;;;1.40;1.23;;;5.80;94.90;;;;;;5101709;28;20335;-71
2023/11/12 01:03:08;;;;;;;1.35;1.00;;;;;;;;;;5101372;28;20032;-70
2023/11/12 01:05:34;;;;;;;1.40;1.23;;;;;;;;;;5100938;28;20032;-70
2023/11/12 01:08:00;;;;;;;1.83;0.57;;;;;;;;;;5101464;28;20247;-70
2023/11/12 01:10:26;;;;;;;1.10;0.90;;;;;;;;;;5101411;28;20330;-70
2023/11/12 01:12:52;;;;;;;4.50;1.83;;;;;;;;;;5101278;28;20055;-70
2023/11/12 01:15:18;;;;;;;1.67;1.00;;;5.80;94.80;;;;;;5101126;28;20024;-70
2023/11/12 01:17:45;;;;;;;1.65;1.17;;;5.90;84.90;;;;;;5101576;28;20024;-70
2023/11/12 01:20:12;;;;;;;2.30;1.20;;;5.90;93.40;;;;;;5101539;28;20028;-70
2023/11/12 01:22:38;;;;;;;1.88;1.08;;;5.90;84.70;;;;;;5101104;28;20044;-70
2023/11/12 01:25:04;;;;;;;3.60;2.65;;;6.30;95.00;;;;;;5101372;28;20016;-70
2023/11/12 01:27:30;;;;;;;2.90;1.33;;;;;;;;;;5101277;28;20112;-70
2023/11/12 01:29:56;;;;;;;2.03;1.20;;;;;;;;;;5101428;28;20028;-71
2023/11/12 01:32:22;;;;;;;4.57;1.23;;;;;;;;;;5101206;28;20048;-70
2023/11/12 01:34:48;;;;;;;1.23;0.93;;;;;;;;;;5100991;28;20031;-71
2023/11/12 01:37:14;;;;;;;2.17;0.93;;;6.00;94.70;;;;;;5101018;28;20227;-71
2023/11/12 01:39:40;;;;;;;2.05;0.90;;;;;;;;;;5100678;28;20039;-71
2023/11/12 01:42:11;;;;;;;1.17;0.90;;;5.80;83.90;;;;;;5100872;28;20077;-71
2023/11/12 01:44:42;;;;;;;2.40;1.40;;;5.80;94.60;;;;;;5100770;28;20015;-71
2023/11/12 01:47:09;;;;;;;1.67;1.02;;;5.70;94.50;;;;;;5100400;28;20026;-71
2023/11/12 01:49:36;;;;;;;3.03;1.30;;;5.70;94.60;;;;;;5099439;28;20061;-71
2023/11/12 01:52:04;;;;;;;1.58;1.05;;;5.70;94.70;;;;;;5100844;28;20020;-71
2023/11/12 01:54:33;;;;;;;0.80;0.80;;;5.70;84.30;;;;;;5100996;28;20052;-71
2023/11/12 01:57:00;;;;;;;1.70;1.25;;;5.70;84.60;;;;;;5100687;28;20031;-71
2023/11/12 01:59:30;;;;;;;3.00;1.00;;;5.70;84.30;;;;;;5100644;28;20052;-71
2023/11/12 02:01:56;;;;;;;1.75;1.30;;;;;;;;;;5099160;28;20059;-72
2023/11/12 02:04:23;;;;;;;1.13;0.93;;;5.70;83.40;;;;;;5100288;28;20016;-71
2023/11/12 02:06:49;;;;;;;2.92;1.02;;;5.60;86.10;;;;;;5100227;28;20027;-71
2023/11/12 02:09:16;;;;;;;1.77;1.30;;;5.70;94.10;;;;;;5099008;28;20039;-72
2023/11/12 02:11:42;;;;;;;2.60;1.13;;;5.70;86.10;;;;;;5100210;28;20328;-72
2023/11/12 02:14:08;;;;;;;4.30;1.48;;;5.70;93.90;;;;;;5100226;28;20061;-70
2023/11/12 02:16:35;;;;;;;1.10;0.80;;;;;;;;;;5099776;28;20027;-71
2023/11/12 02:19:00;;;;;;;1.80;1.40;;;5.80;86.70;;;;;;5099874;28;20035;-71
2023/11/12 02:21:32;;;;;;;1.95;1.00;;;5.60;82.30;;;;;;5100103;28;20240;-71
2023/11/12 02:23:58;;;;;;;4.13;1.33;;;5.70;93.70;;;;;;5100131;28;20037;-71
2023/11/12 02:26:24;;;;;;;1.25;0.88;;;5.40;93.50;;;;;;5100274;28;20028;-71
2023/11/12 02:28:50;;;;;;;1.88;1.23;;;5.40;93.60;;;;;;5100154;28;20027;-72
2023/11/12 02:31:15;;;;;;;2.65;1.38;;;5.60;84.70;;;;;;5100151;28;20028;-71
2023/11/12 02:33:43;;;;;;;1.25;1.10;;;;;;;;;;5100151;28;20404;-72
2023/11/12 02:36:09;;;;;;;1.10;1.00;;;5.60;93.60;;;;;;5100049;28;20020;-72
2023/11/12 02:38:35;;;;;;;1.33;1.05;;;;;;;;;;5100001;28;20034;-71
2023/11/12 02:41:04;;;;;;;1.88;1.42;;;5.30;83.50;;;;;;5099983;28;20020;-71
2023/11/12 02:43:30;;;;;;;2.88;1.42;;;;;;;;;;5099982;28;20055;-71
2023/11/12 02:45:55;;;;;;;1.83;1.10;;;5.60;91.60;;;;;;5100080;28;20088;-72
2023/11/12 02:48:21;;;;;;;1.33;1.10;;;;;;;;;;5100282;28;20024;-72
2023/11/12 02:50:47;;;;;;;1.20;0.90;;;;;;;;;;5100043;28;20081;-69
2023/11/12 02:53:13;;;;;;;1.30;1.17;;;5.60;94.60;;;;;;5100058;28;20052;-70
2023/11/12 02:55:39;;;;;;;1.23;0.90;;;;;;;;;;5100033;28;20028;-70
2023/11/12 02:58:05;;;;;;;4.72;2.22;;;;;;;;;;5099932;28;20028;-72
2023/11/12 03:00:31;;;;;;;2.72;1.65;;;5.70;94.70;;;;;;5099918;28;20020;-73
2023/11/12 03:02:58;;;;;;;1.00;0.70;;;5.30;84.50;;;;;;5100004;28;20381;-73
2023/11/12 03:05:25;;;;;;;1.45;1.20;;;5.30;94.80;;;;;;5100076;28;20012;-70
2023/11/12 03:07:51;;;;;;;1.83;1.67;;;5.20;87.00;;;;;;5099923;28;20035;-69
2023/11/12 03:10:17;;;;;;;3.90;1.35;;;5.20;86.10;;;;;;5100185;28;20023;-70
2023/11/12 03:12:43;;;;;;;2.60;1.15;;;5.30;84.80;;;;;;5099845;28;20027;-71
2023/11/12 03:15:11;;;;;;;4.35;1.83;;;5.10;95.00;;;;;;5099778;28;20016;-71
2023/11/12 03:17:37;;;;;;;1.48;1.10;;;5.10;91.20;;;;;;5099734;28;20305;-69
2023/11/12 03:20:04;;;;;;;1.10;1.00;;;5.50;91.50;;;;;;5099987;28;20161;-72
2023/11/12 03:22:31;;;;;;;1.50;1.23;;;5.20;84.90;;;;;;5099584;28;20043;-71
2023/11/12 03:24:58;;;;;;;3.35;1.65;;;5.20;95.10;;;;;;5098260;28;20020;-71
2023/11/12 03:27:25;;;;;;;3.28;1.42;;;;;;;;;;5099597;28;20020;-70
2023/11/12 03:29:51;;;;;;;4.38;1.20;;;5.10;94.90;;;;;;5102645;28;20042;-70
2023/11/12 03:32:17;;;;;;;1.58;0.98;;;5.10;95.10;;;;;;5103078;28;20016;-69
2023/11/12 03:34:43;;;;;;;1.20;1.02;;;;;;;;;;5103278;28;20024;-72
2023/11/12 03:37:08;;;;;;;2.08;1.25;;;5.20;87.80;;;;;;5103008;28;20381;-71
2023/11/12 03:39:34;;;;;;;2.88;1.75;;;5.00;94.90;;;;;;5102982;28;20095;-69
2023/11/12 03:41:59;;;;;;;2.13;1.55;;;5.10;95.00;;;;;;5143085;27;20066;-71
2023/11/12 03:44:25;;;;;;;2.53;1.00;;;;;;;;;;5142843;27;20030;-69
2023/11/12 03:46:51;;;;;;;2.03;1.17;;;5.30;88.60;;;;;;5144033;27;20031;-70
2023/11/12 03:49:17;;;;;;;1.52;0.93;;;;;;;;;;5143888;27;20080;-71
2023/11/12 03:51:44;;;;;;;1.70;1.00;;;;;;;;;;5143933;27;20027;-71
2023/11/12 03:54:10;;;;;;;3.03;1.50;;;4.80;83.90;;;;;;5143886;27;20359;-71
2023/11/12 03:56:36;;;;;;;1.15;0.70;;;;;;;;;;5143951;27;20031;-71
2023/11/12 03:59:02;;;;;;;1.73;1.05;;;5.10;94.60;;;;;;5144037;27;20018;-72
2023/11/12 04:01:28;;;;;;;2.75;0.90;;;5.30;94.60;;;;;;5143551;27;20235;-71
2023/11/12 04:03:54;;;;;;;2.65;1.20;;;;;;;;;;5143714;27;20023;-71
2023/11/12 04:06:20;;;;;;;1.80;1.10;;;5.00;94.60;;;;;;5143667;27;20023;-71
2023/11/12 04:08:45;;;;;;;6.55;1.90;;;5.20;91.10;;;;;;5143648;27;20019;-71
2023/11/12 04:11:12;;;;;;;1.95;1.00;;;5.20;94.70;;;;;;5143404;27;20030;-71
2023/11/12 04:13:37;;;;;;;3.35;1.20;;;5.20;91.60;;;;;;5143312;27;20087;-71
2023/11/12 04:16:05;;;;;;;1.45;1.05;;;5.20;94.50;;;;;;5143348;27;20035;-71
2023/11/12 04:18:31;;;;;;;2.53;0.85;;;5.30;93.20;;;;;;5141974;27;20015;-71
2023/11/12 04:20:58;;;;;;;2.42;1.48;;;;;;;;;;5143121;27;20022;-71
2023/11/12 04:23:23;;;;;;;1.95;1.23;;;5.20;94.70;;;;;;5143198;27;20061;-71
2023/11/12 04:25:50;;;;;;;2.78;1.20;;;;;;;;;;5142992;27;20188;-71
2023/11/12 04:28:15;;;;;;;1.67;1.25;;;5.00;90.00;;;;;;5143069;27;20028;-71
2023/11/12 04:30:42;;;;;;;2.70;1.50;;;;;;;;;;5143047;27;20022;-71
2023/11/12 04:33:08;;;;;;;1.42;1.27;;;;;;;;;;5142997;27;20068;-71
2023/11/12 04:35:33;;;;;;;5.57;2.42;;;5.30;95.10;;;;;;5143180;27;20023;-71
2023/11/12 04:38:00;;;;;;;2.50;1.65;;;;;;;;;;5142729;27;20363;-72
2023/11/12 04:40:26;;;;;;;1.23;0.98;;;;;;;;;;5141973;27;20078;-72
2023/11/12 04:42:52;;;;;;;1.50;1.13;;;5.00;95.10;;;;;;5142761;27;20027;-72
2023/11/12 04:45:19;;;;;;;4.53;1.60;;;;;;;;;;5142898;27;20075;-72
2023/11/12 04:47:45;;;;;;;3.15;1.30;;;;;;;;;;5142902;27;20322;-71
2023/11/12 04:50:12;;;;;;;1.25;1.15;;;;;;;;;;5142628;27;20039;-71
2023/11/12 04:52:39;;;;;;;2.22;1.52;;;;;;;;;;5142963;27;20260;-71
2023/11/12 04:55:05;;;;;;;3.65;1.70;;;;;;;;;;5142836;27;20014;-71
2023/11/12 04:57:31;;;;;;;1.83;1.00;;;5.00;95.20;;;;;;5141480;27;20023;-71
2023/11/12 04:59:58;;;;;;;1.38;1.10;;;;;;;;;;5142659;27;20099;-71
2023/11/12 05:02:24;;;;;;;3.45;1.50;;;5.10;94.30;;;;;;5142578;27;20161;-71
2023/11/12 05:04:50;;;;;;;3.47;1.70;;;;;;;;;;5142574;27;20036;-71
2023/11/12 05:07:16;;;;;;;1.83;1.67;;;;;;;;;;5142547;27;20043;-71
2023/11/12 05:09:42;;;;;;;2.75;1.50;;;;;;;;;;5142557;27;20019;-71
2023/11/12 05:12:09;;;;;;;4.70;2.03;;;;;;;;;;5142504;27;20064;-70
2023/11/12 05:14:35;;;;;;;5.35;1.42;;;5.40;95.80;;;;;;5128319;27;20367;-68
2023/11/12 05:17:02;;;;;;;3.08;1.90;;;;;;;;;;5121934;28;20027;-70
2023/11/12 05:19:28;;;;;;;3.35;1.95;;;;;;;;;;5120792;28;20019;-71
2023/11/12 05:21:54;;;;;;;4.30;1.63;;;5.00;96.20;;;;;;5121954;28;20329;-71
2023/11/12 05:24:20;;;;;;;2.90;1.55;;;5.20;96.30;;;;;;5121853;28;20055;-71
2023/11/12 05:26:46;;;;;;;2.50;1.67;;;;;;;;;;5121200;28;20024;-71
2023/11/12 05:29:12;;;;;;;4.28;2.00;;;;;;;;;;5120991;28;20019;-71
2023/11/12 05:31:37;;;;;;;7.60;2.53;;;5.10;96.30;;;;;;5121034;28;20057;-71
2023/11/12 05:34:03;;;;;;;2.22;1.88;;;;;;;;;;5121049;28;20023;-71
2023/11/12 05:36:29;;;;;;;2.90;1.80;;;5.10;94.20;;;;;;5121473;28;20042;-71
2023/11/12 05:38:55;;;;;;;3.95;1.65;;;;;;;;;;5121599;28;20027;-71
2023/11/12 05:41:21;;;;;;;2.17;1.80;;;;;;;;;;5121171;28;20031;-71
2023/11/12 05:43:47;;;;;;;3.85;2.30;;;4.80;97.00;;;;;;5121351;28;20023;-71
2023/11/12 05:46:13;;;;;;;2.22;2.05;;;;;;;;;;5121221;28;20069;-71
2023/11/12 05:48:39;;;;;;;2.92;1.92;;;;;;;;;;5121163;28;20035;-71
2023/11/12 05:51:05;;;;;;;2.75;2.33;;;;;;;;;;5120679;28;20063;-71
2023/11/12 05:53:32;;;;;;;3.42;2.40;;;;;;;;;;5119579;28;20020;-71
2023/11/12 05:55:58;;;;;;;4.18;2.80;;;;;;;;;;5121000;28;20038;-70
2023/11/12 05:58:24;;;;;;;3.50;2.25;;;;;;;;;;5120866;28;20023;-70
2023/11/12 06:00:54;;;;;;;6.38;2.40;;;4.60;90.90;;;;;;5119697;28;20019;-70
2023/11/12 06:03:21;;;;;;;3.80;2.78;;;4.40;93.00;;;;;;5120891;28;20031;-70
2023/11/12 06:05:47;;;;;;;6.63;2.30;;;;;;;;;;5119463;28;20023;-69
2023/11/12 06:08:13;;;;;;;5.57;3.22;;;4.50;98.70;;;;;;5134743;27;20012;-69
2023/11/12 06:10:42;;;;;;;3.20;2.55;;;4.40;98.80;;;;;;5141247;27;20021;-69
2023/11/12 06:13:08;;;;;;;2.97;2.00;;;4.40;99.10;;;;;;5141362;27;20019;-71
2023/11/12 06:15:34;;;;;;;5.20;2.80;;;;;;;;;;5141387;27;20026;-71
2023/11/12 06:18:00;;;;;;;12.63;2.63;;;;;;;;;;5141290;27;20054;-70
2023/11/12 06:20:27;;;;;;;3.17;2.33;;;;;;;;;;5141345;27;20367;-69
2023/11/12 06:22:53;;;;;;;5.97;3.33;;;4.30;99.50;;;;;;5141472;27;20098;-70
2023/11/12 06:25:19;;;;;;;4.32;2.65;;;4.70;99.90;;;;;;5141400;27;20060;-71
2023/11/12 06:27:47;;;;;;;7.82;3.22;;;4.50;99.90;;;;;;5141243;27;20306;-71
2023/11/12 06:30:13;;;;;;;3.75;2.92;;;4.90;98.60;;;;;;5139705;28;20098;-71
2023/11/12 06:32:39;;;;;;;6.70;2.88;;;4.40;99.90;;;;;;5141227;27;20319;-69
2023/11/12 06:35:05;;;;;;;3.72;2.67;;;;;;;;;;5141378;28;20060;-71
2023/11/12 06:37:31;;;;;;;3.75;2.90;;;;;;;;;;5141136;28;20026;-71
2023/11/12 06:39:57;;;;;;;3.95;3.17;;;4.40;99.90;;;;;;5141243;28;20023;-71
2023/11/12 06:42:24;;;;;;;5.38;3.35;;;4.40;96.70;;;;;;5141073;28;20039;-71
2023/11/12 06:44:50;;;;;;;5.15;2.95;;;;;;;;;;5141125;27;20015;-71
2023/11/12 06:47:18;;;;;;;6.18;2.90;;;;;;;;;;5141226;28;20129;-70
2023/11/12 06:49:44;;;;;;;3.55;2.92;;;;;;;;;;5140872;27;20063;-71
2023/11/12 06:52:11;;;;;;;4.25;3.00;;;;;;;;;;5140900;28;20084;-71
2023/11/12 06:54:39;;;;;;;5.78;3.47;;;4.50;93.20;;;;;;5140935;28;20038;-71
2023/11/12 06:57:05;;;;;;;3.35;2.95;;;;;;;;;;5139978;28;20023;-71
2023/11/12 06:59:31;;;;;;;3.67;2.88;;;;;;;;;;5140873;28;20118;-71
2023/11/12 07:01:57;;;;;;;6.93;3.80;;;;;;;;;;5140750;27;20034;-69
2023/11/12 07:04:24;;;;;;;4.00;3.55;;;;;;;;;;5143164;27;20315;-69
2023/11/12 07:06:49;;;;;;;5.55;3.83;;;4.80;99.90;;;;;;5144880;27;20027;-70
2023/11/12 07:09:15;;;;;;;5.13;3.05;;;4.70;99.90;;;;;;5144648;27;20031;-70
2023/11/12 07:11:41;;;;;;;6.03;3.13;;;;;;;;;;5144898;27;20062;-69
2023/11/12 07:14:07;;;;;;;3.97;3.15;;;4.90;99.90;;;;;;5144615;27;20247;-68
2023/11/12 07:16:32;;;;;;;5.80;3.58;;;5.30;98.10;;;;;;5145006;27;20049;-70
2023/11/12 07:18:58;;;;;;;4.88;2.30;;;;;;;;;;5144667;27;20318;-69
2023/11/12 07:21:28;;;;;;;4.72;3.10;;;4.90;92.50;;;;;;5144624;27;20035;-69
2023/11/12 07:23:55;;;;;;;3.90;3.10;;;5.30;96.90;;;;;;5144566;27;20030;-69
2023/11/12 07:26:21;;;;;;;4.60;3.40;;;5.60;92.10;;;;;;5144504;27;20027;-69
2023/11/12 07:28:46;;;;;;;5.22;3.03;;;5.70;92.60;;;;;;5144646;27;20026;-69
2023/11/12 07:31:13;;;;;;;3.88;3.15;;;5.80;92.80;;;;;;5144352;27;20015;-69
2023/11/12 07:33:39;;;;;;;3.10;2.72;;;;;;;;;;5144274;27;20042;-70
2023/11/12 07:36:06;;;;;;;4.28;2.90;;;6.10;97.80;;;;;;5142890;27;20045;-70
2023/11/12 07:38:32;;;;;;;5.10;3.30;;;;;;;;;;5144103;27;20023;-71
2023/11/12 07:40:57;;;;;;;5.75;3.03;;;6.20;97.40;;;;;;5143802;27;20121;-71
2023/11/12 07:43:25;;;;;;;4.78;3.30;;;;;;;;;;5143570;27;20042;-71
2023/11/12 07:45:51;;;;;;;6.75;2.90;;;;;;;;;;5142576;27;20023;-70
2023/11/12 07:48:17;;;;;;;6.40;2.88;;;;;;;;;;5143541;27;20083;-69
2023/11/12 07:50:43;;;;;;;3.75;3.08;;;;;;;;;;5143735;27;20070;-69
2023/11/12 07:53:09;;;;;;;3.67;2.80;;;;;;;;;;5144025;27;20023;-69
2023/11/12 07:55:35;;;;;;;5.65;2.75;;;7.20;91.70;;;;;;5143683;27;20053;-70
2023/11/12 07:58:01;;;;;;;5.10;2.78;;;;;;;;;;5143677;27;20061;-69
2023/11/12 08:00:27;;;;;;;3.20;2.88;;;7.10;92.80;;;;;;5143781;27;20023;-72
2023/11/12 08:02:53;;;;;;;4.03;2.88;;;;;;;;;;5143374;27;20055;-70
2023/11/12 08:05:18;;;;;;;2.50;2.25;;;7.40;94.60;;;;;;5143733;27;20042;-71
2023/11/12 08:07:45;;;;;;;3.28;2.33;;;7.40;94.60;;;;;;5143562;27;20058;-71
2023/11/12 08:10:11;;;;;;;3.28;2.58;;;7.80;91.00;;;;;;5143478;27;20335;-71
2023/11/12 08:12:39;;;;;;;2.47;2.28;;;7.80;86.30;;;;;;5143599;27;20019;-71
2023/11/12 08:15:10;;;;;;;3.25;2.47;;;7.80;83.30;;;;;;5142178;27;20103;-71
2023/11/12 08:17:37;;;;;;;3.40;2.35;;;7.90;93.30;;;;;;5143372;27;20019;-71
2023/11/12 08:20:04;;;;;;;5.63;2.85;;;8.00;82.20;;;;;;5143325;27;20019;-71
2023/11/12 08:22:30;;;;;;;3.58;2.42;;;;;;;;;;5143241;27;20415;-71
2023/11/12 08:24:56;;;;;;;3.28;2.60;;;7.90;86.90;;;;;;5143346;27;20057;-70
2023/11/12 08:27:22;;;;;;;3.88;2.75;;;;;;;;;;5143323;27;20030;-69
2023/11/12 08:29:51;;;;;;;3.10;2.78;;;8.40;80.80;;;;;;5143071;27;20015;-71
2023/11/12 08:32:17;;;;;;;;;;;8.30;80.40;;;;;;5143695;27;20019;-70
2023/11/12 08:34:43;;;;;;;4.15;2.45;;;;;;;;;;5143198;27;19961;-71
2023/11/12 08:37:09;;;;;;;3.28;2.03;;;8.30;91.60;;;;;;5143158;27;20015;-71
2023/11/12 08:39:36;;;;;;;3.10;2.03;;;;;;;;;;5141786;27;20376;-71
2023/11/12 08:42:02;;;;;;;4.38;2.47;;;;;;;;;;5142980;27;20023;-69
2023/11/12 08:44:28;;;;;;;3.78;2.50;;;8.70;90.40;;;;;;5143216;27;20066;-71
2023/11/12 08:46:54;;;;;;;3.78;2.28;;;;;;;;;;5141637;27;20311;-72
2023/11/12 08:49:21;;;;;;;4.57;2.83;;;8.70;90.10;;;;;;5142678;27;20047;-71
2023/11/12 08:51:47;;;;;;;3.38;2.60;;;9.00;82.00;;;;;;5142755;27;20027;-71
2023/11/12 08:54:13;;;;;;;3.42;2.47;;;8.90;84.00;;;;;;5142669;27;20061;-72
2023/11/12 08:56:39;;;;;;;3.58;2.78;;;;;;;;;;5142727;27;20030;-71
2023/11/12 08:59:07;;;;;;;3.35;2.40;;;8.80;79.30;;;;;;5142479;27;20027;-73
2023/11/12 09:01:34;;;;;;;3.60;2.40;;;9.00;82.40;;;;;;5142489;27;20050;-71
2023/11/12 09:04:00;;;;;;;4.13;2.33;;;;;;;;;;5142430;27;20019;-71
2023/11/12 09:06:26;;;;;;;3.72;2.15;;;;;;;;;;5142312;27;20031;-71
2023/11/12 09:08:53;;;;;;;4.53;2.63;;;;;;;;;;5141090;27;20025;-71
2023/11/12 09:11:18;;;;;;;2.92;2.47;;;8.90;79.60;;;;;;5142298;27;20356;-69
2023/11/12 09:13:45;;;;;;;3.90;2.63;;;9.40;80.80;;;;;;5142315;27;20315;-69
2023/11/12 09:16:10;;;;;;;3.17;2.42;;;9.50;78.40;;;;;;5141856;27;20064;-69
2023/11/12 09:18:37;;;;;;;4.68;2.88;;;;;;;;;;5142054;27;20653;-69
2023/11/12 09:21:03;;;;;;;3.00;2.33;;;9.40;76.60;;;;;;5141926;27;20076;-69
2023/11/12 09:23:29;;;;;;;3.50;2.22;;;9.90;78.60;;;;;;5142066;27;20076;-71
2023/11/12 09:25:55;;;;;;;3.35;2.83;;;;;;;;;;5141577;27;20023;-69
2023/11/12 09:28:21;;;;;;;9.68;2.63;;;;;;;;;;5141810;27;20257;-69
2023/11/12 09:30:47;;;;;;;3.47;2.20;;;;;;;;;;5141728;27;20019;-69
2023/11/12 09:33:14;;;;;;;4.75;2.60;;;;;;;;;;5141797;27;20094;-69
2023/11/12 09:35:40;;;;;;;4.18;3.10;;;9.80;71.80;;;;;;5141734;27;20082;-71
2023/11/12 09:38:06;;;;;;;4.55;2.58;;;9.90;76.80;;;;;;5141779;27;20054;-71
2023/11/12 09:40:32;;;;;;;3.25;2.33;;;;;;;;;;5141529;27;20050;-71
2023/11/12 09:42:58;;;;;;;4.10;2.33;;;10.00;72.60;;;;;;5141808;27;20062;-70
2023/11/12 09:45:25;;;;;;;4.38;2.78;;;10.20;86.20;;;;;;5140365;27;20018;-70
2023/11/12 09:47:54;;;;;;;4.47;2.10;;;9.90;84.80;;;;;;5141818;27;20086;-71
2023/11/12 09:50:21;;;;;;;2.35;1.85;;;10.20;71.30;;;;;;5141395;27;20043;-70
2023/11/12 09:52:47;;;;;;;5.45;3.28;;;10.30;71.00;;;;;;5139812;27;20046;-70
2023/11/12 09:55:16;;;;;;;4.25;2.58;;;10.50;79.30;;;;;;5112156;28;20019;-70
2023/11/12 09:57:42;;;;;;;2.80;1.95;;;;;;;;;;5099507;28;20016;-69
2023/11/12 10:00:08;;;;;;;4.65;2.10;;;10.30;69.30;;;;;;5100433;28;20024;-71
2023/11/12 10:02:35;;;;;;;3.63;2.00;;;10.10;80.90;;;;;;5100461;28;20028;-70
2023/11/12 10:05:10;;;;;;;2.92;2.10;;;9.90;83.30;;;;;;5100694;28;20040;-70
2023/11/12 10:07:36;;;;;;;2.40;2.10;;;;;;;;;;5100538;28;20024;-69
2023/11/12 10:10:25;;;;;;;2.38;2.10;;;10.10;83.50;;;;;;5100481;28;20076;-71
2023/11/12 10:12:52;;;;;;;3.75;2.00;;;10.50;83.30;;;;;;5099034;28;20211;-69
2023/11/12 10:15:26;;;;;;;2.58;1.98;;;10.50;69.30;;;;;;5100470;28;20028;-69
2023/11/12 10:17:52;;;;;;;3.50;1.90;;;;;;;;;;5100606;28;20030;-69
2023/11/12 10:20:29;;;;;;;4.05;2.60;;;10.70;69.20;;;;;;5099041;28;20040;-69
2023/11/12 10:22:55;;;;;;;5.07;2.08;;;10.60;79.50;;;;;;5100161;28;20083;-70
2023/11/12 10:25:43;;;;;;;3.08;2.40;;;10.70;67.30;;;;;;5100168;28;20216;-70
2023/11/12 10:28:11;;;;;;;2.28;1.73;;;10.20;81.60;;;;;;5100046;28;20054;-70
2023/11/12 10:30:38;;;;;;;2.25;2.05;;;10.20;68.80;;;;;;5100156;28;20259;-70
2023/11/12 10:33:17;;;;;;;8.75;2.50;;;10.20;78.00;;;;;;5099943;28;20028;-69
2023/11/12 10:35:43;;;;;;;3.85;2.60;;;10.30;68.60;;;;;;5100097;28;20099;-70
2023/11/12 10:38:10;;;;;;;2.45;2.20;;;10.30;68.70;;;;;;5100584;28;20059;-70
2023/11/12 10:40:36;;;;;;;3.00;2.08;;;10.90;75.20;;;;;;5104055;28;20031;-69
2023/11/12 10:43:10;;;;;;;2.22;1.88;;;10.60;68.10;;;;;;5104130;28;20024;-69
2023/11/12 10:45:38;;;;;;;2.67;2.03;;;10.70;66.60;;;;;;5102915;28;20050;-69
2023/11/12 10:48:04;;;;;;;3.13;2.47;;;;;;;;;;5103987;28;20050;-68
2023/11/12 10:50:31;;;;;;;2.65;1.95;;;10.70;79.90;;;;;;5103753;28;20299;-69
2023/11/12 10:52:57;;;;;;;2.70;2.10;;;;;;;;;;5104023;28;20058;-69
2023/11/12 10:55:25;;;;;;;2.72;2.13;;;11.00;66.30;;;;;;5104099;28;20083;-69
2023/11/12 10:57:52;;;;;;;2.70;2.03;;;10.70;67.60;;;;;;5104110;28;20032;-70
2023/11/12 11:00:24;;;;;;;3.53;2.42;;;10.70;79.40;;;;;;5103662;28;20300;-70
2023/11/12 11:02:50;;;;;;;1.98;1.88;;;10.70;68.40;;;;;;5103779;28;20032;-69
2023/11/12 12:45:56;;;;;;;2.53;2.00;;;23.20;34.00;;;;;;5118330;27;20393;-70
2023/11/12 12:48:25;;;;;;;1.67;1.58;;;25.20;33.80;;;;;;5098200;28;20058;-70
2023/11/12 12:50:58;;;;;;;1.80;1.70;;;27.30;33.60;;;;;;5098092;28;20360;-72
2023/11/12 13:07:16;;;;;;;3.05;1.30;;;30.30;27.00;;;;;;5118910;27;20392;-71
2023/11/12 13:09:44;;;;;;;1.77;1.40;;;27.40;31.60;;;;;;5118523;28;20261;-69
2023/11/12 13:12:12;;;;;;;3.30;1.92;;;27.00;33.70;;;;;;5115377;28;20032;-71
2023/11/12 13:14:40;;;;;;;2.97;2.00;;;25.80;34.40;;;;;;5097692;28;20032;-71
2023/11/12 13:17:08;;;;;;;1.85;1.73;;;25.60;30.50;;;;;;5097810;28;20269;-70
2023/11/12 13:19:34;;;;;;;2.08;1.83;;;27.00;33.30;;;;;;5111434;28;20020;-71
2023/11/12 13:21:59;;;;;;;3.03;1.70;;;28.80;29.40;;;;;;5116860;28;20031;-71
2023/11/12 13:24:25;;;;;;;1.83;1.65;;;30.30;29.70;;;;;;5114658;28;20438;-71
2023/11/12 13:26:51;;;;;;;2.15;1.23;;;30.80;31.70;;;;;;5109350;28;20020;-70
2023/11/12 13:29:16;;;;;;;1.95;1.10;;;29.60;30.00;;;;;;5118116;28;20035;-69
2023/11/12 13:31:42;;;;;;;1.58;1.15;;;26.40;30.70;;;;;;5117930;28;20323;-70
2023/11/12 13:34:10;;;;;;;1.52;1.15;;;;;;;;;;5118105;28;20032;-70
2023/11/12 13:36:39;;;;;;;1.85;1.00;;;21.70;38.70;;;;;;5117842;28;20027;-71
2023/11/12 13:39:08;;;;;;;2.47;1.05;;;20.00;37.20;;;;;;5117860;28;20020;-70
2023/11/12 13:41:34;;;;;;;1.20;1.10;;;;;;;;;;5117824;28;20020;-71
2023/11/12 13:44:00;;;;;;;2.10;1.42;;;18.10;46.30;;;;;;5108597;28;20024;-70
2023/11/12 13:46:26;;;;;;;1.90;1.35;;;18.50;45.60;;;;;;5097377;28;20246;-70
2023/11/12 13:48:53;;;;;;;1.90;0.75;;;17.80;46.00;;;;;;5089961;28;20024;-70
2023/11/12 13:51:23;;;;;;;1.75;1.42;;;17.10;45.00;;;;;;5077207;28;20037;-70
2023/11/12 13:53:50;;;;;;;2.17;1.08;;;17.20;41.40;;;;;;5077146;28;20055;-72
2023/11/12 13:56:18;;;;;;;2.78;0.88;;;17.30;49.70;;;;;;5076670;28;20224;-70
2023/11/12 13:58:50;;;;;;;2.28;1.13;;;16.00;43.10;;;;;;5077070;28;20100;-70
2023/11/12 14:01:20;;;;;;;1.63;0.95;;;16.10;51.30;;;;;;5079993;28;20026;-70
2023/11/12 14:03:46;;;;;;;1.27;0.90;;;15.90;52.30;;;;;;5076518;28;20013;-70
2023/11/12 14:06:12;;;;;;;1.75;0.90;;;;;;;;;;5073520;28;20063;-70
2023/11/12 14:08:40;;;;;;;1.40;0.98;;;15.60;48.90;;;;;;5062306;28;20021;-72
2023/11/12 14:11:08;;;;;;;1.42;1.17;;;16.90;52.00;;;;;;5062542;28;20020;-71
2023/11/12 14:13:34;;;;;;;1.52;0.70;;;;;;;;;;5061976;28;20040;-71
2023/11/12 14:16:00;;;;;;;1.30;1.02;;;16.30;43.30;;;;;;5061893;28;20036;-71
2023/11/12 14:18:26;;;;;;;1.88;1.13;;;15.40;53.70;;;;;;5063363;28;20370;-70
2023/11/12 14:20:51;;;;;;;2.25;1.20;;;15.60;54.60;;;;;;5083321;28;20020;-70
2023/11/12 14:23:17;;;;;;;1.92;1.00;;;14.70;49.50;;;;;;5077276;28;20031;-71
2023/11/12 14:25:43;;;;;;;1.45;0.90;;;15.50;55.30;;;;;;5087771;28;20050;-70
2023/11/12 14:28:09;;;;;;;1.60;1.05;;;;;;;;;;5073869;28;20017;-70
2023/11/12 14:30:37;;;;;;;1.30;0.88;;;13.50;48.10;;;;;;5071152;28;20052;-71
2023/11/12 14:33:04;;;;;;;1.70;1.13;;;12.70;58.60;;;;;;5065139;28;20035;-70
2023/11/12 14:35:30;;;;;;;2.90;1.35;;;;;;;;;;5061812;28;20047;-69
2023/11/12 14:37:58;;;;;;;1.40;0.95;;;11.80;65.60;;;;;;5061849;28;20084;-70
2023/11/12 14:40:26;;;;;;;2.85;1.35;;;;;;;;;;5063258;28;20025;-71
2023/11/12 14:42:53;;;;;;;2.13;0.90;;;11.00;59.90;;;;;;5062960;28;20206;-71
2023/11/12 14:45:19;;;;;;;1.27;0.90;;;11.20;70.50;;;;;;5062966;28;20027;-71
2023/11/12 14:47:44;;;;;;;4.38;1.10;;;9.30;58.30;;;;;;5062816;28;20084;-71
2023/11/12 14:50:11;;;;;;;1.83;0.80;;;10.60;60.30;;;;;;5062946;28;20036;-71
2023/11/12 14:52:43;;;;;;;4.15;1.40;;;10.30;67.80;;;;;;5062720;28;20032;-71
2023/11/12 14:55:12;;;;;;;3.45;1.42;;;10.50;76.70;;;;;;5061536;28;20029;-71
2023/11/12 14:57:39;;;;;;;1.70;1.10;;;9.90;77.50;;;;;;5062623;28;20020;-71
2023/11/12 15:00:12;;;;;;;4.03;1.40;;;9.60;69.20;;;;;;5062679;28;20021;-70
2023/11/12 15:02:41;;;;;;;1.95;1.20;;;9.40;79.50;;;;;;5062810;28;20013;-72
2023/11/12 15:05:08;;;;;;;2.22;1.25;;;9.50;80.80;;;;;;5062521;28;20276;-71
2023/11/12 15:07:37;;;;;;;4.38;1.40;;;;;;;;;;5069063;28;20020;-71
2023/11/12 15:10:04;;;;;;;2.67;1.40;;;8.80;79.70;;;;;;5082463;28;20065;-71
2023/11/12 15:12:30;;;;;;;2.10;1.45;;;8.70;83.60;;;;;;5082428;28;20092;-71
2023/11/12 15:14:56;;;;;;;2.42;1.52;;;;;;;;;;5064189;28;20037;-72
2023/11/12 15:17:25;;;;;;;4.20;1.88;;;8.80;72.70;;;;;;5082339;28;20028;-72
2023/11/12 15:19:53;;;;;;;1.92;1.40;;;;;;;;;;5081441;28;20029;-71
2023/11/12 15:22:19;;;;;;;3.15;1.60;;;8.30;87.00;;;;;;5082240;28;20089;-71
2023/11/12 15:24:46;;;;;;;4.95;1.90;;;;;;;;;;5082067;28;20028;-71